Flight Track Log - Related Links

Times and Time Zones

All times are in EDT time to prevent confusion due to time zone crossing. See the QXE2450 flight status page for this flight to view local times or setup timezone preferences in your user account.


Time Position Orientation Groundspeed Altitude Reporting Facility
EDT Latitude Longitude Course Direction KTS MPH feet Rate Location/Type
Thu 12:40:00 PM 46.0716 -122.5357 North  Level FlightAware Approximate
Thu 12:41:00 PM 46.1529 -122.5194 North  Level FlightAware Approximate
Thu 12:42:00 PM 46.2343 -122.5032 North  Level FlightAware Approximate
Thu 12:43:00 PM 46.3157 -122.4869 North  Level FlightAware Approximate
Thu 12:44:00 PM 46.3975 -122.4762 North  Level FlightAware Approximate
Thu 12:45:00 PM 46.4794 -122.4671 North  Level FlightAware Approximate
Thu 12:46:00 PM 46.5605 -122.4488 North  Level FlightAware Approximate
Thu 12:47:00 PM 46.6424 -122.4397 North  Level FlightAware Approximate
Thu 12:48:00 PM 46.7240 -122.4265 11° North  Level FlightAware Approximate
Thu 12:49:00 PM 46.8046 -122.4035 11° North  Level FlightAware Approximate
Thu 12:50:00 PM 46.8861 -122.3889 North  Level FlightAware Approximate
Thu 12:51:00 PM 46.9678 -122.3757 North  Level FlightAware Approximate
Thu 12:52:00 PM 47.0494 -122.3625 North  Level FlightAware Approximate
Thu 12:53:00 PM 47.1311 -122.3493 North  Level FlightAware Approximate
Thu 12:54:00 PM 47.2127 -122.3360 North  Level FlightAware Approximate
Thu 12:55:00 PM 47.2944 -122.3227 North  Level FlightAware Approximate
Thu 12:56:00 PM 47.3760 -122.3094 North  Level FlightAware Approximate
Thu 12:57:00 PM 47.4578 -122.2978 North  Level FlightAware Approximate
Thu 12:58:00 PM 47.5398 -122.2903 North  Level FlightAware Approximate
Thu 12:59:00 PM 47.6218 -122.2831 North  Level FlightAware Approximate
Thu 01:00:00 PM 47.7039 -122.2785 North  Level FlightAware Approximate
Thu 01:01:00 PM 47.7860 -122.2739 North  Level FlightAware Approximate
Thu 01:02:00 PM 47.8680 -122.2694 North  Level FlightAware Approximate
Thu 01:03:00 PM 47.9497 -122.2754 350° North  Level FlightAware Approximate
Thu 01:04:00 PM 48.0305 -122.2970 350° North  Level FlightAware Approximate
Thu 01:05:00 PM 48.1114 -122.3185 350° North  Level FlightAware Approximate
Thu 01:06:00 PM 48.1921 -122.3418 348° North  Level FlightAware Approximate
Thu 01:07:00 PM 48.2723 -122.3684 348° North  Level FlightAware Approximate
Thu 01:08:00 PM 48.3525 -122.3952 348° North  Level FlightAware Approximate
Thu 01:09:00 PM 48.4328 -122.4213 349° North  Level FlightAware Approximate
Thu 01:10:00 PM 48.5135 -122.4443 349° North  Level FlightAware Approximate
Thu 01:11:00 PM 48.5939 -122.4697 349° North  Level FlightAware Approximate
Thu 01:12:00 PM 48.6746 -122.4927 349° North  Level FlightAware Approximate
Thu 01:13:00 PM 48.7423 -122.5564 319° Northwest  Level FlightAware Approximate
Thu 01:14:00 PM 48.7935 -122.6536 307° West  Level FlightAware Approximate
Thu 01:15:00 PM 48.8449 -122.7506 315° West  Level FlightAware Approximate
Thu 01:16:00 PM 48.9000 -122.8405 270° West  Level FlightAware Approximate
Thu 01:17:00 PM 48.9541 -122.9311 315° West  Level FlightAware Approximate
Thu 01:18:00 PM 49.0080 -123.0240 297° West  Level FlightAware Approximate
Thu 01:19:00 PM 49.0559 -123.1190 319° Northwest  Level FlightAware Approximate
Thu 01:20:00 PM 49.0870 -123.2312 291° West  Level FlightAware Approximate
Thu 01:21:00 PM 49.1008 -123.3528 294° West  Level FlightAware Approximate
Thu 01:22:00 PM 49.1333 -123.4679 270° West  Level FlightAware Approximate
Thu 01:23:00 PM 49.1500 -123.5485 90° East  Level FlightAware Approximate
Thu 01:24:00 PM 49.1667 -123.4290 90° East  Level FlightAware Approximate
Thu 01:25:00 PM 49.1667 -123.3034 90° East  Level FlightAware Approximate
Thu 01:26:00 PM 49.1833 -123.1838 90° East  Level FlightAware Approximate
Thu 01:27:00 PM 49.1833 -123.1833 90° East  Level FlightAware Approximate
Thu 01:28:00 PM 49.1939 -123.1844 90° East  Level Estimated
Thu 01:29:00 PM 49.1939 -123.1844 90° East  Level Estimated
Thu 01:30:00 PM 49.1939 -123.1844 90° East  Level Estimated
Thu 01:31:00 PM 49.1939 -123.1844 90° East  Level Estimated
Thu 01:32:00 PM 49.1939 -123.1844 90° East  Level Estimated
Thu 01:33:00 PM 49.1939 -123.1844 90° East  Level Estimated
Thu 01:34:00 PM 49.1939 -123.1844 90° East  Level Estimated
Thu 01:35:00 PM 49.1939 -123.1844 90° East  Level Estimated
Thu 01:36:00 PM 49.1939 -123.1844 90° East  Level Estimated
Thu 01:37:00 PM 49.1939 -123.1844 90° East  Level Estimated
Thu 01:38:00 PM 49.1939 -123.1844 90° East  Level Estimated
Thu 01:39:00 PM 49.1939 -123.1844 90° East  Level Estimated
Thu 01:40:00 PM 49.1939 -123.1844 90° East  Level Estimated
Thu 01:41:00 PM 49.1939 -123.1844 90° East  Level Estimated

Login

Don't have an account? Register now (free) for customized features, flight alerts, and more!